N172ZB KPDX-KSLE
Flight info
| Callsign | N172ZB |
|---|---|
| Flight time | 0h 20m |
| Altitude | VFR/035 |
| Route | VFR FF S |
| Aircraft | C172/L-DOV/C |
Departure
| Time | 2026-05-05 22:39 |
|---|---|
| Airport | Portland International Airport (KPDX) |
Arrival
| Time | 2026-05-05 23:00 |
|---|---|
| Airport | Salem-Willamette Valley Airport/McNary Field (KSLE) |
| Time | Latitude | Longitude | Altitude | Speed | Heading |
|---|---|---|---|---|---|
| 2026-05-05 22:39 | 45.44099 | -122.69465 | 2692 ft | 100 kts | 191° |
| 2026-05-05 22:39 | 45.43430 | -122.69725 | 2740 ft | 101 kts | 202° |
| 2026-05-05 22:40 | 45.42773 | -122.70095 | 2792 ft | 103 kts | 206° |
| 2026-05-05 22:40 | 45.42111 | -122.70529 | 2801 ft | 109 kts | 209° |
| 2026-05-05 22:40 | 45.41433 | -122.71023 | 2821 ft | 109 kts | 210° |
| 2026-05-05 22:40 | 45.40753 | -122.71495 | 2860 ft | 108 kts | 210° |
| 2026-05-05 22:41 | 45.40076 | -122.71984 | 2852 ft | 110 kts | 208° |
| 2026-05-05 22:41 | 45.39389 | -122.72448 | 2883 ft | 109 kts | 209° |
| 2026-05-05 22:41 | 45.38701 | -122.72927 | 2904 ft | 111 kts | 210° |
| 2026-05-05 22:41 | 45.37987 | -122.73384 | 2898 ft | 115 kts | 203° |
| 2026-05-05 22:42 | 45.37226 | -122.73765 | 2895 ft | 117 kts | 202° |
| 2026-05-05 22:42 | 45.36459 | -122.74197 | 2840 ft | 120 kts | 206° |
| 2026-05-05 22:42 | 45.35697 | -122.74733 | 2766 ft | 122 kts | 210° |
| 2026-05-05 22:42 | 45.34916 | -122.75281 | 2636 ft | 128 kts | 206° |
| 2026-05-05 22:43 | 45.34203 | -122.75935 | 2631 ft | 121 kts | 229° |
| 2026-05-05 22:43 | 45.33846 | -122.76969 | 2638 ft | 116 kts | 259° |
| 2026-05-05 22:43 | 45.33646 | -122.78080 | 2600 ft | 117 kts | 253° |
| 2026-05-05 22:43 | 45.33319 | -122.79158 | 2514 ft | 122 kts | 248° |
| 2026-05-05 22:44 | 45.32989 | -122.80256 | 2490 ft | 120 kts | 248° |
| 2026-05-05 22:44 | 45.32629 | -122.81316 | 2457 ft | 119 kts | 243° |
| 2026-05-05 22:44 | 45.32153 | -122.82283 | 2402 ft | 120 kts | 232° |
| 2026-05-05 22:44 | 45.31599 | -122.83166 | 2364 ft | 120 kts | 228° |
| 2026-05-05 22:45 | 45.31002 | -122.84001 | 2306 ft | 120 kts | 225° |
| 2026-05-05 22:45 | 45.30397 | -122.84815 | 2264 ft | 119 kts | 224° |
| 2026-05-05 22:45 | 45.29785 | -122.85602 | 2261 ft | 118 kts | 224° |
| 2026-05-05 22:45 | 45.29183 | -122.86341 | 2296 ft | 115 kts | 218° |
| 2026-05-05 22:46 | 45.28515 | -122.86969 | 2295 ft | 116 kts | 212° |
| 2026-05-05 22:46 | 45.27808 | -122.87524 | 2289 ft | 117 kts | 208° |
| 2026-05-05 22:46 | 45.27049 | -122.87955 | 2245 ft | 119 kts | 197° |
| 2026-05-05 22:46 | 45.26236 | -122.88238 | 2210 ft | 120 kts | 192° |
| 2026-05-05 22:47 | 45.25394 | -122.88406 | 2160 ft | 123 kts | 187° |
| 2026-05-05 22:47 | 45.24548 | -122.88490 | 2144 ft | 122 kts | 184° |
| 2026-05-05 22:47 | 45.23698 | -122.88475 | 2124 ft | 122 kts | 177° |
| 2026-05-05 22:47 | 45.22861 | -122.88361 | 2124 ft | 120 kts | 175° |
| 2026-05-05 22:48 | 45.22042 | -122.88249 | 2135 ft | 118 kts | 176° |
| 2026-05-05 22:48 | 45.21216 | -122.88149 | 2092 ft | 121 kts | 177° |
| 2026-05-05 22:48 | 45.20384 | -122.88100 | 2081 ft | 120 kts | 180° |
| 2026-05-05 22:48 | 45.19561 | -122.88085 | 2059 ft | 120 kts | 182° |
| 2026-05-05 22:49 | 45.18738 | -122.88195 | 2052 ft | 119 kts | 189° |
| 2026-05-05 22:49 | 45.17918 | -122.88311 | 2042 ft | 120 kts | 187° |
| 2026-05-05 22:49 | 45.17087 | -122.88455 | 2021 ft | 121 kts | 191° |
| 2026-05-05 22:49 | 45.16254 | -122.88666 | 1994 ft | 121 kts | 195° |
| 2026-05-05 22:50 | 45.15481 | -122.88928 | 2034 ft | 118 kts | 194° |
| 2026-05-05 22:50 | 45.14682 | -122.89231 | 1998 ft | 119 kts | 200° |
| 2026-05-05 22:50 | 45.13886 | -122.89620 | 1966 ft | 120 kts | 201° |
| 2026-05-05 22:50 | 45.13112 | -122.90076 | 1949 ft | 120 kts | 208° |
| 2026-05-05 22:51 | 45.12367 | -122.90589 | 1949 ft | 118 kts | 208° |
| 2026-05-05 22:51 | 45.11645 | -122.91105 | 1953 ft | 118 kts | 210° |
| 2026-05-05 22:51 | 45.10920 | -122.91656 | 1948 ft | 118 kts | 212° |
| 2026-05-05 22:51 | 45.10200 | -122.92229 | 1912 ft | 122 kts | 207° |
| 2026-05-05 22:52 | 45.09449 | -122.92787 | 1856 ft | 122 kts | 214° |
| 2026-05-05 22:52 | 45.08750 | -122.93477 | 1788 ft | 123 kts | 219° |
| 2026-05-05 22:52 | 45.08044 | -122.94074 | 1856 ft | 117 kts | 202° |
| 2026-05-05 22:52 | 45.07301 | -122.94566 | 1824 ft | 121 kts | 209° |
| 2026-05-05 22:53 | 45.06547 | -122.95112 | 1784 ft | 123 kts | 210° |
| 2026-05-05 22:53 | 45.05803 | -122.95689 | 1771 ft | 121 kts | 212° |
| 2026-05-05 22:53 | 45.05087 | -122.96279 | 1802 ft | 117 kts | 213° |
| 2026-05-05 22:53 | 45.04395 | -122.96877 | 1811 ft | 116 kts | 214° |
| 2026-05-05 22:54 | 45.03720 | -122.97484 | 1819 ft | 117 kts | 213° |
| 2026-05-05 22:54 | 45.03021 | -122.98082 | 1815 ft | 118 kts | 214° |
| 2026-05-05 22:54 | 45.02332 | -122.98706 | 1824 ft | 117 kts | 216° |
| 2026-05-05 22:54 | 45.01659 | -122.99347 | 1827 ft | 118 kts | 216° |
| 2026-05-05 22:55 | 45.00951 | -122.99960 | 1799 ft | 121 kts | 213° |
| 2026-05-05 22:55 | 45.00206 | -123.00558 | 1701 ft | 125 kts | 210° |
| 2026-05-05 22:55 | 44.99424 | -123.01075 | 1608 ft | 122 kts | 205° |
| 2026-05-05 22:55 | 44.98625 | -123.01501 | 1460 ft | 122 kts | 198° |
| 2026-05-05 22:56 | 44.97806 | -123.01790 | 1361 ft | 121 kts | 193° |
| 2026-05-05 22:56 | 44.96972 | -123.01980 | 1249 ft | 121 kts | 189° |
| 2026-05-05 22:56 | 44.96165 | -123.02151 | 1234 ft | 116 kts | 190° |
| 2026-05-05 22:56 | 44.95355 | -123.02326 | 1145 ft | 117 kts | 189° |
| 2026-05-05 22:57 | 44.94588 | -123.02400 | 1173 ft | 109 kts | 183° |
| 2026-05-05 22:57 | 44.93837 | -123.02461 | 1176 ft | 108 kts | 185° |
| 2026-05-05 22:57 | 44.93080 | -123.02536 | 1130 ft | 110 kts | 185° |
| 2026-05-05 22:57 | 44.92318 | -123.02626 | 1114 ft | 109 kts | 186° |
| 2026-05-05 22:58 | 44.91561 | -123.02703 | 1107 ft | 108 kts | 185° |
| 2026-05-05 22:58 | 44.90816 | -123.02773 | 1122 ft | 108 kts | 185° |
| 2026-05-05 22:58 | 44.90084 | -123.02824 | 1072 ft | 105 kts | 183° |
| 2026-05-05 22:58 | 44.89402 | -123.02673 | 1011 ft | 94 kts | 148° |
| 2026-05-05 22:59 | 44.89133 | -123.01935 | 923 ft | 85 kts | 94° |
| 2026-05-05 22:59 | 44.89108 | -123.01137 | 777 ft | 80 kts | 90° |
| 2026-05-05 22:59 | 44.89279 | -123.00464 | 631 ft | 72 kts | 37° |
| 2026-05-05 22:59 | 44.89769 | -123.00342 | 387 ft | 73 kts | 0° |
| 2026-05-05 23:00 | 44.90534 | -123.00352 | 210 ft | 25 kts | 358° |
| 2026-05-05 23:00 | 44.90674 | -123.00435 | 208 ft | 20 kts | 336° |
| 2026-05-05 23:00 | 44.90708 | -123.00448 | 207 ft | 2 kts | 351° |
| 2026-05-05 23:01 | 44.90782 | -123.00469 | 213 ft | 14 kts | 319° |
| 2026-05-05 23:01 | 44.90778 | -123.00589 | 204 ft | 11 kts | 262° |
| 2026-05-05 23:01 | 44.90761 | -123.00628 | 206 ft | 0 kts | 182° |